sensor_id;sensor_type;location;lat;lon;timestamp;P1;durP1;ratioP1;P2;durP2;ratioP2
81265;SDS011;70748;52.510;13.410;2023-07-08T00:00:44;10.45;;;4.68;;
81265;SDS011;70748;52.510;13.410;2023-07-08T00:03:12;16.88;;;4.93;;
81265;SDS011;70748;52.510;13.410;2023-07-08T00:05:42;9.43;;;4.88;;
81265;SDS011;70748;52.510;13.410;2023-07-08T00:08:11;8.52;;;4.40;;
81265;SDS011;70748;52.510;13.410;2023-07-08T00:10:42;14.77;;;4.63;;
81265;SDS011;70748;52.510;13.410;2023-07-08T00:13:08;13.77;;;4.47;;
81265;SDS011;70748;52.510;13.410;2023-07-08T00:15:34;5.95;;;4.45;;
81265;SDS011;70748;52.510;13.410;2023-07-08T00:18:03;11.35;;;5.20;;
81265;SDS011;70748;52.510;13.410;2023-07-08T00:20:42;11.43;;;5.22;;
81265;SDS011;70748;52.510;13.410;2023-07-08T00:23:10;7.70;;;4.70;;
81265;SDS011;70748;52.510;13.410;2023-07-08T00:25:36;11.45;;;4.68;;
81265;SDS011;70748;52.510;13.410;2023-07-08T00:28:02;8.70;;;4.57;;
81265;SDS011;70748;52.510;13.410;2023-07-08T00:30:30;9.35;;;5.28;;
81265;SDS011;70748;52.510;13.410;2023-07-08T00:32:57;6.38;;;4.88;;
81265;SDS011;70748;52.510;13.410;2023-07-08T00:35:34;10.85;;;4.75;;
81265;SDS011;70748;52.510;13.410;2023-07-08T00:38:12;8.07;;;5.68;;
81265;SDS011;70748;52.510;13.410;2023-07-08T00:40:50;8.13;;;5.15;;
81265;SDS011;70748;52.510;13.410;2023-07-08T00:43:19;7.78;;;4.95;;
81265;SDS011;70748;52.510;13.410;2023-07-08T00:45:50;11.50;;;5.60;;
81265;SDS011;70748;52.510;13.410;2023-07-08T00:51:01;8.95;;;5.20;;
81265;SDS011;70748;52.510;13.410;2023-07-08T00:53:28;8.32;;;5.75;;
81265;SDS011;70748;52.510;13.410;2023-07-08T00:56:04;8.90;;;5.10;;
81265;SDS011;70748;52.510;13.410;2023-07-08T00:59:02;9.43;;;4.88;;
81265;SDS011;70748;52.510;13.410;2023-07-08T01:01:32;13.02;;;5.32;;
81265;SDS011;70748;52.510;13.410;2023-07-08T01:04:06;13.20;;;5.35;;
81265;SDS011;70748;52.510;13.410;2023-07-08T01:06:44;8.48;;;4.95;;
81265;SDS011;70748;52.510;13.410;2023-07-08T01:09:12;8.75;;;5.30;;
81265;SDS011;70748;52.510;13.410;2023-07-08T01:11:40;12.82;;;5.22;;
81265;SDS011;70748;52.510;13.410;2023-07-08T01:14:07;8.35;;;4.97;;
81265;SDS011;70748;52.510;13.410;2023-07-08T01:16:37;12.98;;;5.28;;
81265;SDS011;70748;52.510;13.410;2023-07-08T01:19:03;10.95;;;5.10;;
81265;SDS011;70748;52.510;13.410;2023-07-08T01:21:36;8.23;;;4.85;;
81265;SDS011;70748;52.510;13.410;2023-07-08T01:24:06;7.03;;;4.43;;
81265;SDS011;70748;52.510;13.410;2023-07-08T01:26:35;8.10;;;4.90;;
81265;SDS011;70748;52.510;13.410;2023-07-08T01:29:05;8.02;;;4.40;;
81265;SDS011;70748;52.510;13.410;2023-07-08T01:31:32;8.95;;;4.35;;
81265;SDS011;70748;52.510;13.410;2023-07-08T01:33:58;7.85;;;4.32;;
81265;SDS011;70748;52.510;13.410;2023-07-08T01:36:24;8.82;;;4.78;;
81265;SDS011;70748;52.510;13.410;2023-07-08T01:38:54;8.27;;;4.40;;
81265;SDS011;70748;52.510;13.410;2023-07-08T01:41:20;6.38;;;4.65;;
81265;SDS011;70748;52.510;13.410;2023-07-08T01:43:46;7.57;;;4.28;;
81265;SDS011;70748;52.510;13.410;2023-07-08T01:46:20;6.30;;;4.22;;
81265;SDS011;70748;52.510;13.410;2023-07-08T01:48:51;8.70;;;4.38;;
81265;SDS011;70748;52.510;13.410;2023-07-08T01:51:19;6.78;;;4.38;;
81265;SDS011;70748;52.510;13.410;2023-07-08T01:53:47;6.45;;;4.20;;
81265;SDS011;70748;52.510;13.410;2023-07-08T01:56:13;6.10;;;3.88;;
81265;SDS011;70748;52.510;13.410;2023-07-08T01:58:41;5.47;;;3.80;;
81265;SDS011;70748;52.510;13.410;2023-07-08T02:01:07;8.23;;;4.47;;
81265;SDS011;70748;52.510;13.410;2023-07-08T02:03:33;11.05;;;4.25;;
81265;SDS011;70748;52.510;13.410;2023-07-08T02:05:59;11.00;;;3.90;;
81265;SDS011;70748;52.510;13.410;2023-07-08T02:08:25;6.05;;;3.63;;
81265;SDS011;70748;52.510;13.410;2023-07-08T02:10:55;9.85;;;4.10;;
81265;SDS011;70748;52.510;13.410;2023-07-08T02:13:22;6.72;;;3.80;;
81265;SDS011;70748;52.510;13.410;2023-07-08T02:15:49;8.95;;;4.05;;
81265;SDS011;70748;52.510;13.410;2023-07-08T02:18:15;12.32;;;4.10;;
81265;SDS011;70748;52.510;13.410;2023-07-08T02:20:43;12.93;;;3.83;;
81265;SDS011;70748;52.510;13.410;2023-07-08T02:23:10;7.22;;;3.60;;
81265;SDS011;70748;52.510;13.410;2023-07-08T02:25:35;6.00;;;3.95;;
81265;SDS011;70748;52.510;13.410;2023-07-08T02:28:01;6.85;;;4.13;;
81265;SDS011;70748;52.510;13.410;2023-07-08T02:30:27;10.27;;;4.10;;
81265;SDS011;70748;52.510;13.410;2023-07-08T02:32:53;9.35;;;4.05;;
81265;SDS011;70748;52.510;13.410;2023-07-08T02:35:23;10.30;;;4.15;;
81265;SDS011;70748;52.510;13.410;2023-07-08T02:37:50;6.93;;;3.70;;
81265;SDS011;70748;52.510;13.410;2023-07-08T02:40:17;7.32;;;4.00;;
81265;SDS011;70748;52.510;13.410;2023-07-08T02:42:42;6.57;;;3.90;;
81265;SDS011;70748;52.510;13.410;2023-07-08T02:45:08;11.07;;;4.10;;
81265;SDS011;70748;52.510;13.410;2023-07-08T02:47:35;6.60;;;4.25;;
81265;SDS011;70748;52.510;13.410;2023-07-08T02:50:00;6.32;;;4.28;;
81265;SDS011;70748;52.510;13.410;2023-07-08T02:52:26;6.78;;;4.10;;
81265;SDS011;70748;52.510;13.410;2023-07-08T02:54:54;6.22;;;4.10;;
81265;SDS011;70748;52.510;13.410;2023-07-08T02:57:20;7.30;;;4.10;;
81265;SDS011;70748;52.510;13.410;2023-07-08T02:59:45;6.25;;;4.32;;
81265;SDS011;70748;52.510;13.410;2023-07-08T03:02:11;6.80;;;4.03;;
81265;SDS011;70748;52.510;13.410;2023-07-08T03:04:37;14.10;;;3.97;;
81265;SDS011;70748;52.510;13.410;2023-07-08T03:07:04;8.73;;;3.80;;
81265;SDS011;70748;52.510;13.410;2023-07-08T03:09:31;9.80;;;4.28;;
81265;SDS011;70748;52.510;13.410;2023-07-08T03:11:57;6.25;;;4.10;;
81265;SDS011;70748;52.510;13.410;2023-07-08T03:14:26;7.40;;;3.97;;
81265;SDS011;70748;52.510;13.410;2023-07-08T03:16:52;6.50;;;4.25;;
81265;SDS011;70748;52.510;13.410;2023-07-08T03:19:18;5.20;;;3.95;;
81265;SDS011;70748;52.510;13.410;2023-07-08T03:21:44;8.05;;;4.25;;
81265;SDS011;70748;52.510;13.410;2023-07-08T03:24:11;20.10;;;4.70;;
81265;SDS011;70748;52.510;13.410;2023-07-08T03:26:37;6.25;;;4.32;;
81265;SDS011;70748;52.510;13.410;2023-07-08T03:29:03;10.23;;;4.35;;
81265;SDS011;70748;52.510;13.410;2023-07-08T03:31:29;6.90;;;4.00;;
81265;SDS011;70748;52.510;13.410;2023-07-08T03:33:55;6.63;;;3.72;;
81265;SDS011;70748;52.510;13.410;2023-07-08T03:36:20;7.50;;;4.65;;
81265;SDS011;70748;52.510;13.410;2023-07-08T03:38:50;7.53;;;3.92;;
81265;SDS011;70748;52.510;13.410;2023-07-08T03:41:20;8.20;;;4.07;;
81265;SDS011;70748;52.510;13.410;2023-07-08T03:43:46;5.85;;;3.75;;
81265;SDS011;70748;52.510;13.410;2023-07-08T03:46:13;8.98;;;4.20;;
81265;SDS011;70748;52.510;13.410;2023-07-08T03:48:42;7.65;;;4.25;;
81265;SDS011;70748;52.510;13.410;2023-07-08T03:51:13;6.68;;;4.47;;
81265;SDS011;70748;52.510;13.410;2023-07-08T03:53:46;6.57;;;4.18;;
81265;SDS011;70748;52.510;13.410;2023-07-08T03:56:12;6.97;;;4.28;;
81265;SDS011;70748;52.510;13.410;2023-07-08T03:58:38;13.45;;;4.68;;
81265;SDS011;70748;52.510;13.410;2023-07-08T04:01:04;8.05;;;4.05;;
81265;SDS011;70748;52.510;13.410;2023-07-08T04:03:34;7.47;;;4.00;;
81265;SDS011;70748;52.510;13.410;2023-07-08T04:06:00;10.07;;;4.70;;
81265;SDS011;70748;52.510;13.410;2023-07-08T04:08:26;6.22;;;4.32;;
81265;SDS011;70748;52.510;13.410;2023-07-08T04:10:52;5.70;;;3.97;;
81265;SDS011;70748;52.510;13.410;2023-07-08T04:13:17;7.88;;;4.50;;
81265;SDS011;70748;52.510;13.410;2023-07-08T04:15:53;8.85;;;4.10;;
81265;SDS011;70748;52.510;13.410;2023-07-08T04:18:22;7.18;;;4.07;;
81265;SDS011;70748;52.510;13.410;2023-07-08T04:20:47;9.82;;;4.07;;
81265;SDS011;70748;52.510;13.410;2023-07-08T04:23:17;6.35;;;4.40;;
81265;SDS011;70748;52.510;13.410;2023-07-08T04:25:43;9.20;;;4.00;;
81265;SDS011;70748;52.510;13.410;2023-07-08T04:28:09;10.52;;;4.50;;
81265;SDS011;70748;52.510;13.410;2023-07-08T04:30:35;9.00;;;4.65;;
81265;SDS011;70748;52.510;13.410;2023-07-08T04:33:06;8.90;;;4.78;;
81265;SDS011;70748;52.510;13.410;2023-07-08T04:35:33;7.22;;;4.20;;
81265;SDS011;70748;52.510;13.410;2023-07-08T04:38:14;6.25;;;3.72;;
81265;SDS011;70748;52.510;13.410;2023-07-08T04:40:44;6.78;;;4.22;;
81265;SDS011;70748;52.510;13.410;2023-07-08T04:43:10;6.85;;;3.75;;
81265;SDS011;70748;52.510;13.410;2023-07-08T04:45:37;5.88;;;3.75;;
81265;SDS011;70748;52.510;13.410;2023-07-08T04:48:04;6.38;;;4.10;;
81265;SDS011;70748;52.510;13.410;2023-07-08T04:50:33;14.50;;;4.72;;
81265;SDS011;70748;52.510;13.410;2023-07-08T04:53:00;24.65;;;4.35;;
81265;SDS011;70748;52.510;13.410;2023-07-08T04:55:27;10.32;;;3.72;;
81265;SDS011;70748;52.510;13.410;2023-07-08T04:57:53;6.50;;;4.03;;
81265;SDS011;70748;52.510;13.410;2023-07-08T05:00:18;7.93;;;4.00;;
81265;SDS011;70748;52.510;13.410;2023-07-08T05:02:44;11.55;;;4.28;;
81265;SDS011;70748;52.510;13.410;2023-07-08T05:05:10;9.82;;;4.20;;
81265;SDS011;70748;52.510;13.410;2023-07-08T05:07:36;7.72;;;4.15;;
81265;SDS011;70748;52.510;13.410;2023-07-08T05:10:02;15.40;;;4.85;;
81265;SDS011;70748;52.510;13.410;2023-07-08T05:12:27;8.70;;;4.22;;
81265;SDS011;70748;52.510;13.410;2023-07-08T05:14:53;6.55;;;3.92;;
81265;SDS011;70748;52.510;13.410;2023-07-08T05:17:19;8.02;;;3.72;;
81265;SDS011;70748;52.510;13.410;2023-07-08T05:19:45;10.15;;;4.20;;
81265;SDS011;70748;52.510;13.410;2023-07-08T05:22:11;7.22;;;3.85;;
81265;SDS011;70748;52.510;13.410;2023-07-08T05:24:37;6.85;;;4.15;;
81265;SDS011;70748;52.510;13.410;2023-07-08T05:27:03;5.78;;;4.03;;
81265;SDS011;70748;52.510;13.410;2023-07-08T05:29:31;8.32;;;4.25;;
81265;SDS011;70748;52.510;13.410;2023-07-08T05:31:57;6.88;;;3.90;;
81265;SDS011;70748;52.510;13.410;2023-07-08T05:34:27;5.68;;;3.78;;
81265;SDS011;70748;52.510;13.410;2023-07-08T05:36:56;6.35;;;4.10;;
81265;SDS011;70748;52.510;13.410;2023-07-08T05:39:25;9.70;;;4.28;;
81265;SDS011;70748;52.510;13.410;2023-07-08T05:44:22;11.23;;;4.50;;
81265;SDS011;70748;52.510;13.410;2023-07-08T05:46:49;8.88;;;4.40;;
81265;SDS011;70748;52.510;13.410;2023-07-08T05:49:15;10.13;;;4.22;;
81265;SDS011;70748;52.510;13.410;2023-07-08T05:51:44;8.18;;;4.50;;
81265;SDS011;70748;52.510;13.410;2023-07-08T05:54:10;7.53;;;4.05;;
81265;SDS011;70748;52.510;13.410;2023-07-08T05:56:38;11.93;;;4.28;;
81265;SDS011;70748;52.510;13.410;2023-07-08T05:59:04;5.68;;;3.97;;
81265;SDS011;70748;52.510;13.410;2023-07-08T06:01:30;7.45;;;4.00;;
81265;SDS011;70748;52.510;13.410;2023-07-08T06:03:59;7.35;;;3.88;;
81265;SDS011;70748;52.510;13.410;2023-07-08T06:06:26;6.20;;;3.97;;
81265;SDS011;70748;52.510;13.410;2023-07-08T06:08:53;8.50;;;3.97;;
81265;SDS011;70748;52.510;13.410;2023-07-08T06:11:19;4.65;;;3.58;;
81265;SDS011;70748;52.510;13.410;2023-07-08T06:13:45;5.85;;;4.00;;
81265;SDS011;70748;52.510;13.410;2023-07-08T06:16:10;6.20;;;3.60;;
81265;SDS011;70748;52.510;13.410;2023-07-08T06:18:37;8.50;;;4.20;;
81265;SDS011;70748;52.510;13.410;2023-07-08T06:21:02;8.15;;;3.90;;
81265;SDS011;70748;52.510;13.410;2023-07-08T06:23:31;12.15;;;4.20;;
81265;SDS011;70748;52.510;13.410;2023-07-08T06:26:00;6.45;;;3.70;;
81265;SDS011;70748;52.510;13.410;2023-07-08T06:28:25;6.97;;;3.80;;
81265;SDS011;70748;52.510;13.410;2023-07-08T06:30:51;6.10;;;3.70;;
81265;SDS011;70748;52.510;13.410;2023-07-08T06:33:17;6.00;;;3.55;;
81265;SDS011;70748;52.510;13.410;2023-07-08T06:35:43;6.95;;;3.72;;
81265;SDS011;70748;52.510;13.410;2023-07-08T06:38:09;9.52;;;3.58;;
81265;SDS011;70748;52.510;13.410;2023-07-08T06:40:35;5.75;;;3.30;;
81265;SDS011;70748;52.510;13.410;2023-07-08T06:43:02;8.10;;;4.00;;
81265;SDS011;70748;52.510;13.410;2023-07-08T06:45:34;8.20;;;3.33;;
81265;SDS011;70748;52.510;13.410;2023-07-08T06:48:02;12.35;;;3.58;;
81265;SDS011;70748;52.510;13.410;2023-07-08T06:50:28;9.82;;;3.58;;
81265;SDS011;70748;52.510;13.410;2023-07-08T06:52:57;11.20;;;3.50;;
81265;SDS011;70748;52.510;13.410;2023-07-08T06:55:25;9.02;;;3.72;;
81265;SDS011;70748;52.510;13.410;2023-07-08T06:57:50;5.43;;;3.40;;
81265;SDS011;70748;52.510;13.410;2023-07-08T07:00:17;7.72;;;3.90;;
81265;SDS011;70748;52.510;13.410;2023-07-08T07:02:43;6.38;;;3.78;;
81265;SDS011;70748;52.510;13.410;2023-07-08T07:05:09;8.77;;;3.90;;
81265;SDS011;70748;52.510;13.410;2023-07-08T07:07:37;10.30;;;3.83;;
81265;SDS011;70748;52.510;13.410;2023-07-08T07:10:03;10.27;;;3.80;;
81265;SDS011;70748;52.510;13.410;2023-07-08T07:12:31;9.75;;;3.97;;
81265;SDS011;70748;52.510;13.410;2023-07-08T07:14:59;5.97;;;3.47;;
81265;SDS011;70748;52.510;13.410;2023-07-08T07:17:25;4.15;;;3.50;;
81265;SDS011;70748;52.510;13.410;2023-07-08T07:19:52;5.00;;;4.20;;
81265;SDS011;70748;52.510;13.410;2023-07-08T07:22:22;9.60;;;3.67;;
81265;SDS011;70748;52.510;13.410;2023-07-08T07:24:51;6.63;;;3.75;;
81265;SDS011;70748;52.510;13.410;2023-07-08T07:27:19;5.90;;;4.00;;
81265;SDS011;70748;52.510;13.410;2023-07-08T07:29:46;9.07;;;4.20;;
81265;SDS011;70748;52.510;13.410;2023-07-08T07:32:14;7.93;;;4.20;;
81265;SDS011;70748;52.510;13.410;2023-07-08T07:34:40;7.53;;;4.35;;
81265;SDS011;70748;52.510;13.410;2023-07-08T07:37:10;6.15;;;3.85;;
81265;SDS011;70748;52.510;13.410;2023-07-08T07:39:37;5.07;;;3.63;;
81265;SDS011;70748;52.510;13.410;2023-07-08T07:42:03;7.93;;;4.07;;
81265;SDS011;70748;52.510;13.410;2023-07-08T07:44:31;6.17;;;3.47;;
81265;SDS011;70748;52.510;13.410;2023-07-08T07:47:01;7.50;;;3.97;;
81265;SDS011;70748;52.510;13.410;2023-07-08T07:49:30;5.45;;;3.58;;
81265;SDS011;70748;52.510;13.410;2023-07-08T07:52:05;6.50;;;4.00;;
81265;SDS011;70748;52.510;13.410;2023-07-08T07:54:46;5.70;;;4.20;;
81265;SDS011;70748;52.510;13.410;2023-07-08T07:57:15;6.85;;;3.60;;
81265;SDS011;70748;52.510;13.410;2023-07-08T07:59:59;5.35;;;3.67;;
81265;SDS011;70748;52.510;13.410;2023-07-08T08:02:27;6.85;;;3.67;;
81265;SDS011;70748;52.510;13.410;2023-07-08T08:05:16;5.32;;;3.80;;
81265;SDS011;70748;52.510;13.410;2023-07-08T08:08:19;12.95;;;3.78;;
81265;SDS011;70748;52.510;13.410;2023-07-08T08:10:47;5.03;;;3.53;;
81265;SDS011;70748;52.510;13.410;2023-07-08T08:13:29;6.72;;;3.25;;
81265;SDS011;70748;52.510;13.410;2023-07-08T08:16:03;7.20;;;3.38;;
81265;SDS011;70748;52.510;13.410;2023-07-08T08:21:54;8.18;;;4.28;;
81265;SDS011;70748;52.510;13.410;2023-07-08T08:27:45;12.80;;;4.03;;
81265;SDS011;70748;52.510;13.410;2023-07-08T08:30:52;4.75;;;3.70;;
81265;SDS011;70748;52.510;13.410;2023-07-08T08:36:57;5.55;;;4.15;;
81265;SDS011;70748;52.510;13.410;2023-07-08T08:39:45;6.07;;;3.88;;
81265;SDS011;70748;52.510;13.410;2023-07-08T08:42:57;4.63;;;3.70;;
81265;SDS011;70748;52.510;13.410;2023-07-08T08:49:04;6.32;;;3.85;;
81265;SDS011;70748;52.510;13.410;2023-07-08T09:01:17;7.05;;;3.95;;
81265;SDS011;70748;52.510;13.410;2023-07-08T09:04:22;7.07;;;4.00;;
81265;SDS011;70748;52.510;13.410;2023-07-08T09:07:06;4.50;;;4.10;;
81265;SDS011;70748;52.510;13.410;2023-07-08T09:19:45;6.53;;;3.42;;
81265;SDS011;70748;52.510;13.410;2023-07-08T09:26:22;8.07;;;3.50;;
81265;SDS011;70748;52.510;13.410;2023-07-08T09:32:58;7.53;;;3.20;;
81265;SDS011;70748;52.510;13.410;2023-07-08T09:39:17;5.32;;;3.40;;
81265;SDS011;70748;52.510;13.410;2023-07-08T09:45:23;3.75;;;3.35;;
81265;SDS011;70748;52.510;13.410;2023-07-08T09:48:13;9.07;;;3.50;;
81265;SDS011;70748;52.510;13.410;2023-07-08T09:54:10;3.60;;;2.88;;
81265;SDS011;70748;52.510;13.410;2023-07-08T10:03:00;3.50;;;3.20;;
81265;SDS011;70748;52.510;13.410;2023-07-08T10:15:45;5.30;;;3.38;;
81265;SDS011;70748;52.510;13.410;2023-07-08T10:18:17;4.63;;;3.00;;
81265;SDS011;70748;52.510;13.410;2023-07-08T10:24:23;3.85;;;3.40;;
81265;SDS011;70748;52.510;13.410;2023-07-08T10:41:03;5.07;;;3.53;;
81265;SDS011;70748;52.510;13.410;2023-07-08T10:43:42;6.07;;;3.65;;
81265;SDS011;70748;52.510;13.410;2023-07-08T11:05:47;3.78;;;3.20;;
81265;SDS011;70748;52.510;13.410;2023-07-08T11:09:06;4.57;;;3.60;;
81265;SDS011;70748;52.510;13.410;2023-07-08T11:21:05;4.13;;;3.40;;
81265;SDS011;70748;52.510;13.410;2023-07-08T11:30:30;6.15;;;3.92;;
81265;SDS011;70748;52.510;13.410;2023-07-08T11:46:14;5.25;;;3.30;;
81265;SDS011;70748;52.510;13.410;2023-07-08T11:49:09;5.35;;;3.38;;
81265;SDS011;70748;52.510;13.410;2023-07-08T11:51:43;8.95;;;3.42;;
81265;SDS011;70748;52.510;13.410;2023-07-08T11:54:39;4.55;;;3.65;;
81265;SDS011;70748;52.510;13.410;2023-07-08T12:10:03;5.68;;;3.83;;
81265;SDS011;70748;52.510;13.410;2023-07-08T12:12:41;5.40;;;3.90;;
81265;SDS011;70748;52.510;13.410;2023-07-08T12:15:25;5.32;;;3.90;;
81265;SDS011;70748;52.510;13.410;2023-07-08T12:18:17;5.30;;;3.72;;
81265;SDS011;70748;52.510;13.410;2023-07-08T12:20:58;6.95;;;3.70;;
81265;SDS011;70748;52.510;13.410;2023-07-08T12:23:33;5.57;;;3.63;;
81265;SDS011;70748;52.510;13.410;2023-07-08T12:26:39;4.95;;;3.65;;
81265;SDS011;70748;52.510;13.410;2023-07-08T12:29:20;5.38;;;3.70;;
81265;SDS011;70748;52.510;13.410;2023-07-08T12:31:45;4.93;;;3.50;;
81265;SDS011;70748;52.510;13.410;2023-07-08T12:37:20;5.72;;;3.63;;
81265;SDS011;70748;52.510;13.410;2023-07-08T12:43:22;8.68;;;4.03;;
81265;SDS011;70748;52.510;13.410;2023-07-08T12:45:51;4.88;;;3.70;;
81265;SDS011;70748;52.510;13.410;2023-07-08T12:48:40;5.18;;;3.80;;
81265;SDS011;70748;52.510;13.410;2023-07-08T12:51:20;4.43;;;4.03;;
81265;SDS011;70748;52.510;13.410;2023-07-08T12:53:48;5.68;;;4.13;;
81265;SDS011;70748;52.510;13.410;2023-07-08T12:56:17;9.88;;;4.10;;
81265;SDS011;70748;52.510;13.410;2023-07-08T12:58:57;9.75;;;3.70;;
81265;SDS011;70748;52.510;13.410;2023-07-08T13:01:28;8.75;;;3.83;;
81265;SDS011;70748;52.510;13.410;2023-07-08T13:04:04;6.73;;;3.80;;
81265;SDS011;70748;52.510;13.410;2023-07-08T13:06:39;6.78;;;3.80;;
81265;SDS011;70748;52.510;13.410;2023-07-08T13:12:20;4.38;;;3.70;;
81265;SDS011;70748;52.510;13.410;2023-07-08T13:14:50;10.20;;;4.28;;
81265;SDS011;70748;52.510;13.410;2023-07-08T13:17:24;4.03;;;3.53;;
81265;SDS011;70748;52.510;13.410;2023-07-08T13:19:51;7.07;;;3.70;;
81265;SDS011;70748;52.510;13.410;2023-07-08T13:22:20;8.10;;;3.90;;
81265;SDS011;70748;52.510;13.410;2023-07-08T13:24:48;4.72;;;3.65;;
81265;SDS011;70748;52.510;13.410;2023-07-08T13:27:23;5.13;;;3.72;;
81265;SDS011;70748;52.510;13.410;2023-07-08T13:29:56;8.93;;;3.78;;
81265;SDS011;70748;52.510;13.410;2023-07-08T13:32:52;5.07;;;3.80;;
81265;SDS011;70748;52.510;13.410;2023-07-08T13:38:04;10.30;;;4.07;;
81265;SDS011;70748;52.510;13.410;2023-07-08T13:40:30;4.53;;;3.78;;
81265;SDS011;70748;52.510;13.410;2023-07-08T13:42:57;11.30;;;3.90;;
81265;SDS011;70748;52.510;13.410;2023-07-08T13:45:28;4.43;;;3.30;;
81265;SDS011;70748;52.510;13.410;2023-07-08T13:48:13;5.03;;;3.70;;
81265;SDS011;70748;52.510;13.410;2023-07-08T13:50:50;7.28;;;3.63;;
81265;SDS011;70748;52.510;13.410;2023-07-08T13:53:47;4.70;;;3.75;;
81265;SDS011;70748;52.510;13.410;2023-07-08T13:58:49;4.55;;;4.07;;
81265;SDS011;70748;52.510;13.410;2023-07-08T14:01:19;4.30;;;3.75;;
81265;SDS011;70748;52.510;13.410;2023-07-08T14:04:04;5.03;;;4.10;;
81265;SDS011;70748;52.510;13.410;2023-07-08T14:06:38;7.10;;;3.85;;
81265;SDS011;70748;52.510;13.410;2023-07-08T14:09:16;7.45;;;3.60;;
81265;SDS011;70748;52.510;13.410;2023-07-08T14:11:47;5.35;;;3.72;;
81265;SDS011;70748;52.510;13.410;2023-07-08T14:14:13;6.18;;;4.00;;
81265;SDS011;70748;52.510;13.410;2023-07-08T14:16:43;5.35;;;4.18;;
81265;SDS011;70748;52.510;13.410;2023-07-08T14:19:22;4.50;;;3.55;;
81265;SDS011;70748;52.510;13.410;2023-07-08T14:22:03;5.88;;;3.70;;
81265;SDS011;70748;52.510;13.410;2023-07-08T14:27:40;7.07;;;4.75;;
81265;SDS011;70748;52.510;13.410;2023-07-08T14:30:09;7.68;;;4.15;;
81265;SDS011;70748;52.510;13.410;2023-07-08T14:32:36;5.35;;;3.60;;
81265;SDS011;70748;52.510;13.410;2023-07-08T14:35:10;8.45;;;4.00;;
81265;SDS011;70748;52.510;13.410;2023-07-08T14:37:51;5.32;;;3.42;;
81265;SDS011;70748;52.510;13.410;2023-07-08T14:43:31;11.82;;;4.10;;
81265;SDS011;70748;52.510;13.410;2023-07-08T14:46:02;5.95;;;3.58;;
81265;SDS011;70748;52.510;13.410;2023-07-08T14:48:30;5.72;;;3.92;;
81265;SDS011;70748;52.510;13.410;2023-07-08T14:50:57;5.72;;;3.78;;
81265;SDS011;70748;52.510;13.410;2023-07-08T14:53:26;6.65;;;3.88;;
81265;SDS011;70748;52.510;13.410;2023-07-08T14:55:53;6.00;;;3.67;;
81265;SDS011;70748;52.510;13.410;2023-07-08T15:00:57;8.15;;;3.92;;
81265;SDS011;70748;52.510;13.410;2023-07-08T15:03:35;5.15;;;3.53;;
81265;SDS011;70748;52.510;13.410;2023-07-08T15:06:07;5.65;;;4.03;;
81265;SDS011;70748;52.510;13.410;2023-07-08T15:09:13;5.38;;;3.72;;
81265;SDS011;70748;52.510;13.410;2023-07-08T15:11:39;7.70;;;3.85;;
81265;SDS011;70748;52.510;13.410;2023-07-08T15:17:14;8.60;;;3.58;;
81265;SDS011;70748;52.510;13.410;2023-07-08T15:19:44;6.15;;;3.88;;
81265;SDS011;70748;52.510;13.410;2023-07-08T15:22:10;4.00;;;3.55;;
81265;SDS011;70748;52.510;13.410;2023-07-08T15:24:36;9.32;;;3.63;;
81265;SDS011;70748;52.510;13.410;2023-07-08T15:27:03;7.10;;;3.85;;
81265;SDS011;70748;52.510;13.410;2023-07-08T15:29:34;5.88;;;3.80;;
81265;SDS011;70748;52.510;13.410;2023-07-08T15:45:52;5.95;;;3.72;;
81265;SDS011;70748;52.510;13.410;2023-07-08T15:56:06;7.43;;;3.67;;
81265;SDS011;70748;52.510;13.410;2023-07-08T15:59:02;9.30;;;3.67;;
81265;SDS011;70748;52.510;13.410;2023-07-08T16:01:29;4.68;;;3.40;;
81265;SDS011;70748;52.510;13.410;2023-07-08T16:03:54;5.85;;;3.47;;
81265;SDS011;70748;52.510;13.410;2023-07-08T16:06:20;6.88;;;3.45;;
81265;SDS011;70748;52.510;13.410;2023-07-08T16:08:46;8.05;;;3.40;;
81265;SDS011;70748;52.510;13.410;2023-07-08T16:11:28;6.25;;;3.90;;
81265;SDS011;70748;52.510;13.410;2023-07-08T16:13:55;9.73;;;3.50;;
81265;SDS011;70748;52.510;13.410;2023-07-08T16:16:22;5.00;;;3.35;;
81265;SDS011;70748;52.510;13.410;2023-07-08T16:18:50;6.72;;;3.50;;
81265;SDS011;70748;52.510;13.410;2023-07-08T16:21:16;7.53;;;3.60;;
81265;SDS011;70748;52.510;13.410;2023-07-08T16:23:41;7.32;;;3.83;;
81265;SDS011;70748;52.510;13.410;2023-07-08T16:26:08;5.65;;;3.97;;
81265;SDS011;70748;52.510;13.410;2023-07-08T16:28:40;8.35;;;3.95;;
81265;SDS011;70748;52.510;13.410;2023-07-08T16:31:15;4.95;;;3.80;;
81265;SDS011;70748;52.510;13.410;2023-07-08T16:33:43;8.32;;;3.45;;
81265;SDS011;70748;52.510;13.410;2023-07-08T16:36:28;6.70;;;3.80;;
81265;SDS011;70748;52.510;13.410;2023-07-08T16:38:53;6.45;;;4.10;;
81265;SDS011;70748;52.510;13.410;2023-07-08T16:41:21;5.82;;;3.67;;
81265;SDS011;70748;52.510;13.410;2023-07-08T16:43:48;9.82;;;3.80;;
81265;SDS011;70748;52.510;13.410;2023-07-08T16:46:15;6.38;;;3.92;;
81265;SDS011;70748;52.510;13.410;2023-07-08T16:48:43;9.40;;;4.35;;
81265;SDS011;70748;52.510;13.410;2023-07-08T16:53:45;6.75;;;4.10;;
81265;SDS011;70748;52.510;13.410;2023-07-08T16:56:11;4.70;;;3.45;;
81265;SDS011;70748;52.510;13.410;2023-07-08T16:58:38;6.20;;;3.87;;
81265;SDS011;70748;52.510;13.410;2023-07-08T17:01:04;8.13;;;3.80;;
81265;SDS011;70748;52.510;13.410;2023-07-08T17:03:33;7.57;;;3.42;;
81265;SDS011;70748;52.510;13.410;2023-07-08T17:06:00;6.65;;;3.60;;
81265;SDS011;70748;52.510;13.410;2023-07-08T17:08:26;6.25;;;3.63;;
81265;SDS011;70748;52.510;13.410;2023-07-08T17:10:51;5.57;;;3.55;;
81265;SDS011;70748;52.510;13.410;2023-07-08T17:13:18;4.30;;;3.10;;
81265;SDS011;70748;52.510;13.410;2023-07-08T17:15:44;5.35;;;3.28;;
81265;SDS011;70748;52.510;13.410;2023-07-08T17:18:12;7.18;;;4.00;;
81265;SDS011;70748;52.510;13.410;2023-07-08T17:20:45;4.80;;;3.85;;
81265;SDS011;70748;52.510;13.410;2023-07-08T17:23:15;6.90;;;4.10;;
81265;SDS011;70748;52.510;13.410;2023-07-08T17:25:42;6.97;;;3.47;;
81265;SDS011;70748;52.510;13.410;2023-07-08T17:28:07;5.18;;;3.55;;
81265;SDS011;70748;52.510;13.410;2023-07-08T17:30:34;5.95;;;3.92;;
81265;SDS011;70748;52.510;13.410;2023-07-08T17:33:00;7.95;;;3.90;;
81265;SDS011;70748;52.510;13.410;2023-07-08T17:35:27;5.47;;;3.70;;
81265;SDS011;70748;52.510;13.410;2023-07-08T17:37:53;4.47;;;3.20;;
81265;SDS011;70748;52.510;13.410;2023-07-08T17:40:22;8.70;;;3.97;;
81265;SDS011;70748;52.510;13.410;2023-07-08T17:42:49;5.80;;;4.00;;
81265;SDS011;70748;52.510;13.410;2023-07-08T17:45:16;5.47;;;3.75;;
81265;SDS011;70748;52.510;13.410;2023-07-08T17:47:44;7.72;;;3.63;;
81265;SDS011;70748;52.510;13.410;2023-07-08T17:50:21;8.50;;;3.67;;
81265;SDS011;70748;52.510;13.410;2023-07-08T17:52:49;6.78;;;3.70;;
81265;SDS011;70748;52.510;13.410;2023-07-08T17:55:15;6.38;;;3.90;;
81265;SDS011;70748;52.510;13.410;2023-07-08T17:57:43;6.95;;;3.67;;
81265;SDS011;70748;52.510;13.410;2023-07-08T18:00:16;8.20;;;4.30;;
81265;SDS011;70748;52.510;13.410;2023-07-08T18:02:51;5.75;;;3.42;;
81265;SDS011;70748;52.510;13.410;2023-07-08T18:05:20;6.53;;;3.55;;
81265;SDS011;70748;52.510;13.410;2023-07-08T18:07:47;8.23;;;4.32;;
81265;SDS011;70748;52.510;13.410;2023-07-08T18:10:15;6.03;;;4.30;;
81265;SDS011;70748;52.510;13.410;2023-07-08T18:12:44;5.90;;;3.70;;
81265;SDS011;70748;52.510;13.410;2023-07-08T18:17:48;9.55;;;5.25;;
81265;SDS011;70748;52.510;13.410;2023-07-08T18:20:16;6.55;;;3.90;;